Time;durP1;ratioP1;P1;durP2;ratioP2;P2;SDS_P1;SDS_P2;PMS_P1;PMS_P2;Temp;Humidity;BMP_temperature;BMP_pressure;BME280_temperature;BME280_humidity;BME280_pressure;Samples;Min_cycle;Max_cycle;Signal;HPM_P1;HPM_P2
2022/12/08 00:18:01;;;;;;;0.20;0.10;;;12.10;99.90;;;;;;20999393;28;20756;-72
2022/12/08 00:28:05;;;;;;;0.20;0.10;;;12.00;99.90;;;;;;21059984;28;20492;-71
2022/12/08 00:38:10;;;;;;;0.20;0.10;;;12.10;99.90;;;;;;20993414;28;20486;-72
2022/12/08 00:48:14;;;;;;;0.20;0.10;;;12.20;99.90;;;;;;20981546;28;20444;-71
2022/12/08 00:58:19;;;;;;;0.20;0.10;;;12.10;99.90;;;;;;20998032;28;20413;-72
2022/12/08 01:08:23;;;;;;;0.20;0.10;;;12.00;99.90;;;;;;20977792;28;20410;-71
2022/12/08 01:18:29;;;;;;;0.20;0.10;;;11.90;99.90;;;;;;20997434;28;20623;-73
2022/12/08 01:28:33;;;;;;;0.20;0.10;;;11.90;99.90;;;;;;20954514;28;20494;-71
2022/12/08 01:38:38;;;;;;;0.20;0.10;;;11.80;99.90;;;;;;20939331;28;20401;-72
2022/12/08 01:48:42;;;;;;;0.20;0.10;;;11.60;99.90;;;;;;20976473;28;20500;-72
2022/12/08 01:58:51;;;;;;;0.20;0.10;;;11.50;99.90;;;;;;21011965;28;20700;-73
2022/12/08 02:08:56;;;;;;;0.20;0.00;;;11.10;99.90;;;;;;21008999;28;20484;-73
2022/12/08 02:19:22;;;;;;;0.20;0.00;;;11.00;99.90;;;;;;21007858;28;20414;-72
2022/12/08 02:30:00;;;;;;;0.20;0.00;;;11.00;99.90;;;;;;21105468;28;20406;-73
2022/12/08 02:40:13;;;;;;;0.20;0.10;;;10.80;99.90;;;;;;21008780;28;20406;-73
2022/12/08 02:50:17;;;;;;;0.20;0.10;;;10.70;99.90;;;;;;20986988;28;20759;-73
2022/12/08 03:00:24;;;;;;;0.20;0.10;;;10.80;99.90;;;;;;21005872;28;20477;-73
2022/12/08 03:10:34;;;;;;;0.20;0.00;;;10.90;99.90;;;;;;21004848;28;20725;-72
2022/12/08 03:20:40;;;;;;;0.20;0.00;;;11.00;99.90;;;;;;20987063;28;20491;-74
2022/12/08 03:30:47;;;;;;;0.20;0.10;;;11.20;99.90;;;;;;20944907;28;20518;-73
2022/12/08 03:51:10;;;;;;;0.20;0.10;;;11.40;99.90;;;;;;20982398;28;20841;-73
2022/12/08 04:01:15;;;;;;;0.20;0.10;;;11.40;99.90;;;;;;20983101;28;20444;-71
2022/12/08 04:11:20;;;;;;;0.20;0.10;;;11.40;99.90;;;;;;21001826;28;20560;-72
2022/12/08 04:21:25;;;;;;;0.20;0.10;;;11.40;99.90;;;;;;20979278;28;20461;-72
2022/12/08 04:31:29;;;;;;;0.20;0.10;;;11.30;99.90;;;;;;21063230;28;20428;-73
2022/12/08 04:41:35;;;;;;;0.20;0.10;;;11.30;99.90;;;;;;21078235;28;20451;-72
2022/12/08 04:51:39;;;;;;;0.20;0.00;;;11.20;99.90;;;;;;21064202;28;20774;-72
2022/12/08 05:01:44;;;;;;;0.20;0.05;;;11.20;99.90;;;;;;21060121;28;20404;-70
2022/12/08 05:11:48;;;;;;;0.20;0.10;;;11.00;99.90;;;;;;21044858;28;20406;-72
2022/12/08 05:21:53;;;;;;;0.20;0.10;;;11.00;99.90;;;;;;20995592;28;20430;-73
2022/12/08 05:31:57;;;;;;;0.20;0.10;;;10.90;99.90;;;;;;20977939;28;20454;-73
2022/12/08 05:42:02;;;;;;;0.20;0.10;;;10.60;99.90;;;;;;20961637;28;20410;-74
2022/12/08 05:52:06;;;;;;;0.20;0.00;;;10.30;99.90;;;;;;20978184;28;20823;-73
2022/12/08 06:02:12;;;;;;;0.20;0.10;;;10.00;99.90;;;;;;20994685;28;20478;-74
2022/12/08 06:12:16;;;;;;;0.20;0.10;;;9.90;99.90;;;;;;20993912;28;20398;-73
2022/12/08 06:22:21;;;;;;;0.20;0.10;;;10.20;99.90;;;;;;20996244;28;20440;-72
2022/12/08 06:32:25;;;;;;;0.20;0.10;;;10.30;99.90;;;;;;20935212;28;20580;-74
2022/12/08 06:42:43;;;;;;;0.20;0.10;;;10.50;99.90;;;;;;20924611;28;20630;-72
2022/12/08 06:52:47;;;;;;;0.20;0.10;;;10.60;99.90;;;;;;20904428;28;20395;-72
2022/12/08 07:03:07;;;;;;;0.20;0.10;;;10.60;99.90;;;;;;20886661;28;20423;-72
2022/12/08 07:13:11;;;;;;;0.20;0.10;;;10.90;99.90;;;;;;20919885;28;20833;-74
2022/12/08 07:23:16;;;;;;;0.20;0.10;;;11.10;99.90;;;;;;20901478;28;20430;-73
2022/12/08 07:33:20;;;;;;;0.20;0.10;;;11.30;99.90;;;;;;20919641;28;20483;-73
2022/12/08 07:43:25;;;;;;;0.20;0.10;;;11.40;99.90;;;;;;20901874;28;20490;-73
2022/12/08 07:53:29;;;;;;;0.20;0.10;;;11.70;99.90;;;;;;20898698;28;20423;-74
2022/12/08 08:03:35;;;;;;;0.20;0.10;;;11.90;99.90;;;;;;20970116;28;20858;-72
2022/12/08 08:13:39;;;;;;;0.20;0.00;;;12.10;99.90;;;;;;20997081;28;20394;-73
2022/12/08 08:23:44;;;;;;;0.20;0.10;;;12.20;99.90;;;;;;20999578;28;20424;-72
2022/12/08 08:33:50;;;;;;;0.20;0.10;;;12.40;99.90;;;;;;20991225;28;20680;-73
2022/12/08 08:43:56;;;;;;;0.20;0.00;;;12.60;99.90;;;;;;20895184;28;20454;-73
2022/12/08 08:54:00;;;;;;;0.20;0.00;;;12.70;99.90;;;;;;20895606;28;20436;-72
2022/12/08 09:04:05;;;;;;;0.20;0.10;;;13.00;99.90;;;;;;20913613;28;20407;-72
2022/12/08 09:14:11;;;;;;;0.20;0.10;;;13.50;99.90;;;;;;20911488;28;20408;-73
2022/12/08 09:24:17;;;;;;;0.20;0.10;;;14.10;99.90;;;;;;20910813;28;20498;-72
2022/12/08 09:34:20;;;;;;;0.20;0.00;;;14.60;99.90;;;;;;20912441;28;20522;-73
2022/12/08 09:44:46;;;;;;;0.20;0.07;;;15.40;99.90;;;;;;20909196;28;20475;-73
2022/12/08 09:54:50;;;;;;;0.20;0.10;;;15.70;99.90;;;;;;20892121;28;20408;-73
2022/12/08 10:04:57;;;;;;;0.20;0.10;;;15.80;99.90;;;;;;20906212;28;20414;-72
2022/12/08 10:15:11;;;;;;;0.20;0.10;;;16.00;99.90;;;;;;20908470;28;20419;-73
2022/12/08 10:25:19;;;;;;;0.20;0.10;;;16.10;99.90;;;;;;20963812;23;20428;-74
2022/12/08 10:35:24;;;;;;;0.20;0.10;;;16.20;99.90;;;;;;21003825;28;20891;-72
2022/12/08 10:45:32;;;;;;;0.20;0.10;;;17.30;99.90;;;;;;20980366;22;20916;-74
2022/12/08 10:55:42;;;;;;;0.20;0.10;;;16.50;99.90;;;;;;20930195;28;20456;-73
2022/12/08 11:05:48;;;;;;;0.20;0.00;;;16.20;99.90;;;;;;20926871;28;20413;-69
2022/12/08 11:15:53;;;;;;;0.20;0.00;;;15.80;99.90;;;;;;20945627;28;20409;-73
2022/12/08 11:26:06;;;;;;;0.20;0.08;;;15.30;99.90;;;;;;20909960;28;21064;-69
2022/12/08 11:36:14;;;;;;;0.20;0.10;;;15.30;99.90;;;;;;20928276;28;20908;-73
2022/12/08 11:46:23;;;;;;;0.20;0.10;;;15.20;99.90;;;;;;20942185;28;20604;-72
2022/12/08 11:56:33;;;;;;;0.20;0.00;;;15.10;99.90;;;;;;20940931;28;20398;-71
2022/12/08 12:07:08;;;;;;;0.20;0.10;;;15.50;99.90;;;;;;20942806;28;20442;-74
2022/12/08 12:17:30;;;;;;;0.20;0.10;;;15.50;99.90;;;;;;20941865;28;20401;-72
2022/12/08 12:27:39;;;;;;;0.20;0.00;;;15.60;99.90;;;;;;20940294;28;20552;-73
2022/12/08 12:37:43;;;;;;;0.20;0.10;;;15.40;99.90;;;;;;20938864;28;20402;-73
2022/12/08 12:47:50;;;;;;;0.20;0.10;;;15.50;99.90;;;;;;20940113;28;20918;-75
2022/12/08 12:57:59;;;;;;;0.20;0.00;;;15.30;99.90;;;;;;20939349;28;20394;-72
2022/12/08 13:08:07;;;;;;;0.20;0.10;;;15.10;99.90;;;;;;20937393;28;20426;-74
2022/12/08 13:18:20;;;;;;;0.20;0.00;;;14.60;99.90;;;;;;20939822;28;21045;-73
2022/12/08 13:28:29;;;;;;;0.20;0.10;;;14.50;99.90;;;;;;20938135;28;20757;-75
2022/12/08 13:38:37;;;;;;;0.20;0.10;;;14.60;99.90;;;;;;20949766;28;20401;-71
2022/12/08 13:48:47;;;;;;;0.20;0.10;;;14.50;99.90;;;;;;20955367;28;20440;-72
2022/12/08 13:59:27;;;;;;;0.20;0.08;;;14.30;99.90;;;;;;20951280;28;20757;-72
2022/12/08 14:09:36;;;;;;;0.20;0.00;;;14.40;99.90;;;;;;20950606;28;20402;-73
2022/12/08 14:19:43;;;;;;;0.20;0.00;;;14.40;99.90;;;;;;20953210;28;20406;-71
2022/12/08 14:29:51;;;;;;;0.20;0.00;;;14.40;99.90;;;;;;20950914;28;20410;-72
2022/12/08 14:40:00;;;;;;;0.20;0.00;;;14.30;99.90;;;;;;20951250;28;20748;-72
2022/12/08 14:50:37;;;;;;;0.20;0.10;;;14.40;99.90;;;;;;20930951;28;20790;-72
2022/12/08 15:00:46;;;;;;;0.20;0.10;;;14.30;99.90;;;;;;20953064;28;20382;-72
2022/12/08 15:11:26;;;;;;;0.20;0.10;;;14.20;99.90;;;;;;20949312;28;20433;-71
2022/12/08 15:21:33;;;;;;;0.20;0.10;;;14.00;99.90;;;;;;20948170;28;20444;-73
2022/12/08 15:31:38;;;;;;;0.20;0.10;;;14.00;99.90;;;;;;20943670;28;20973;-72
2022/12/08 15:41:42;;;;;;;0.20;0.10;;;13.70;99.90;;;;;;20944364;28;20424;-73
2022/12/08 15:51:48;;;;;;;0.20;0.03;;;13.60;99.90;;;;;;20946118;28;20422;-75
2022/12/08 16:01:52;;;;;;;0.20;0.10;;;13.80;99.90;;;;;;20944290;28;20497;-72
2022/12/08 16:22:21;;;;;;;0.20;0.10;;;13.70;99.90;;;;;;20921030;28;20663;-73
2022/12/08 16:32:46;;;;;;;0.20;0.10;;;13.70;99.90;;;;;;20928321;28;20518;-73
2022/12/08 16:42:50;;;;;;;0.20;0.10;;;13.60;99.90;;;;;;20941767;28;20406;-72
2022/12/08 16:52:59;;;;;;;0.20;0.00;;;13.90;99.90;;;;;;20938279;28;21337;-72
2022/12/08 17:03:03;;;;;;;0.20;0.10;;;13.50;99.90;;;;;;20925607;28;20438;-72
2022/12/08 17:13:09;;;;;;;0.20;0.10;;;13.50;99.90;;;;;;20856044;28;20411;-72
2022/12/08 17:23:13;;;;;;;0.20;0.10;;;13.50;99.90;;;;;;20900991;28;20402;-73
2022/12/08 17:33:20;;;;;;;0.20;0.00;;;13.70;99.90;;;;;;20933925;28;20410;-74
2022/12/08 17:43:29;;;;;;;0.20;0.00;;;13.60;99.90;;;;;;20921933;28;20506;-75
2022/12/08 17:53:35;;;;;;;0.20;0.00;;;13.70;99.90;;;;;;20938315;28;21155;-74
2022/12/08 18:03:40;;;;;;;0.20;0.05;;;13.80;99.90;;;;;;20934766;28;20402;-73
2022/12/08 18:13:45;;;;;;;0.20;0.00;;;13.70;99.90;;;;;;20925690;28;20398;-73
2022/12/08 18:23:50;;;;;;;0.20;0.10;;;13.60;99.90;;;;;;20942749;28;20410;-74
2022/12/08 18:33:55;;;;;;;0.20;0.10;;;13.60;99.90;;;;;;20956331;28;20884;-74
2022/12/08 18:43:58;;;;;;;0.20;0.10;;;13.90;99.90;;;;;;20929908;28;20405;-73
2022/12/08 18:54:04;;;;;;;0.20;0.10;;;13.90;99.90;;;;;;20940371;28;20390;-73
2022/12/08 19:04:09;;;;;;;0.20;0.08;;;13.70;99.90;;;;;;20937549;28;20390;-73
2022/12/08 19:14:34;;;;;;;0.20;0.00;;;13.60;99.90;;;;;;20928971;28;20417;-73
2022/12/08 19:24:38;;;;;;;0.20;0.00;;;13.50;99.90;;;;;;20948922;28;20428;-72
2022/12/08 19:34:43;;;;;;;0.20;0.10;;;13.70;99.90;;;;;;20921760;28;20403;-73
2022/12/08 19:44:53;;;;;;;0.20;0.00;;;13.90;99.90;;;;;;20941553;28;20710;-73
2022/12/08 19:54:58;;;;;;;0.20;0.00;;;13.90;99.90;;;;;;20940223;28;20460;-74
2022/12/08 20:05:03;;;;;;;0.20;0.00;;;13.80;99.90;;;;;;20924345;28;20410;-74
2022/12/08 20:15:09;;;;;;;0.20;0.10;;;13.60;99.90;;;;;;20938803;28;20402;-74
2022/12/08 20:25:13;;;;;;;0.20;0.10;;;13.70;99.90;;;;;;20912294;28;20410;-73
2022/12/08 20:35:19;;;;;;;0.20;0.10;;;13.70;99.90;;;;;;20937145;28;20405;-74
2022/12/08 20:45:23;;;;;;;0.20;0.08;;;13.70;99.90;;;;;;20939135;28;20877;-73
2022/12/08 20:55:29;;;;;;;0.20;0.00;;;13.60;99.90;;;;;;20938466;28;20406;-73
2022/12/08 21:05:34;;;;;;;0.20;0.10;;;13.70;99.90;;;;;;20931957;28;20778;-73
2022/12/08 21:15:45;;;;;;;0.20;0.00;;;13.80;99.90;;;;;;20936066;28;20396;-73
2022/12/08 21:25:49;;;;;;;0.20;0.10;;;14.00;99.90;;;;;;20936298;28;20449;-73
2022/12/08 21:36:06;;;;;;;0.20;0.10;;;13.90;99.90;;;;;;20934519;28;20757;-73
2022/12/08 21:46:15;;;;;;;0.20;0.00;;;14.00;99.90;;;;;;20934187;28;20417;-73
2022/12/08 21:56:21;;;;;;;0.20;0.00;;;14.00;99.90;;;;;;20941866;28;20398;-74
2022/12/08 22:06:25;;;;;;;0.20;0.00;;;14.10;99.90;;;;;;20928862;28;20422;-73
2022/12/08 22:16:31;;;;;;;0.20;0.00;;;14.10;99.90;;;;;;20948873;28;20896;-75
2022/12/08 22:26:35;;;;;;;0.20;0.10;;;14.10;99.90;;;;;;20947946;28;20409;-76
2022/12/08 22:36:41;;;;;;;0.20;0.10;;;14.10;99.90;;;;;;20928209;28;20447;-75
2022/12/08 22:46:45;;;;;;;0.20;0.10;;;14.10;99.90;;;;;;20939154;28;20770;-76
2022/12/08 22:56:50;;;;;;;0.20;0.10;;;14.10;99.90;;;;;;20946989;28;20467;-73
2022/12/08 23:06:55;;;;;;;0.20;0.10;;;14.20;99.90;;;;;;20946256;28;20422;-74
2022/12/08 23:17:00;;;;;;;0.20;0.10;;;14.10;99.90;;;;;;20946972;28;20406;-74
2022/12/08 23:27:04;;;;;;;0.20;0.00;;;14.20;99.90;;;;;;20950204;28;20416;-73
2022/12/08 23:37:09;;;;;;;0.20;0.10;;;13.90;99.90;;;;;;20943296;28;20406;-74
2022/12/08 23:47:13;;;;;;;0.20;0.10;;;13.70;99.90;;;;;;20948426;28;20424;-75
2022/12/08 23:57:19;;;;;;;0.20;0.10;;;13.80;99.90;;;;;;20945420;28;20543;-75
